Time;durP1;ratioP1;P1;durP2;ratioP2;P2;SDS_P1;SDS_P2;PMS_P1;PMS_P2;Temp;Humidity;BMP_temperature;BMP_pressure;BME280_temperature;BME280_humidity;BME280_pressure;Samples;Min_cycle;Max_cycle;Signal;HPM_P1;HPM_P2
2023/04/01 00:00:53;;;;;;;1.83;0.63;;;7.90;99.90;;;;;;4995537;28;20312;-75
2023/04/01 00:03:22;;;;;;;1.37;0.70;;;7.90;99.90;;;;;;4995811;28;20209;-76
2023/04/01 00:05:51;;;;;;;1.70;0.40;;;7.90;99.90;;;;;;4995637;28;20232;-75
2023/04/01 00:08:19;;;;;;;2.03;0.70;;;7.90;99.90;;;;;;5004519;28;20305;-78
2023/04/01 00:10:47;;;;;;;2.93;0.67;;;7.90;99.90;;;;;;4995428;28;20202;-75
2023/04/01 00:13:17;;;;;;;2.13;0.60;;;7.80;99.90;;;;;;4995354;28;20297;-78
2023/04/01 00:15:45;;;;;;;2.27;0.80;;;7.80;99.90;;;;;;4995140;28;20590;-77
2023/04/01 00:18:15;;;;;;;2.20;0.87;;;7.70;99.90;;;;;;4994829;28;20721;-78
2023/04/01 00:20:46;;;;;;;1.77;0.50;;;7.80;99.90;;;;;;4994833;28;20747;-78
2023/04/01 00:23:14;;;;;;;2.70;0.60;;;7.70;99.90;;;;;;4994663;28;20597;-75
2023/04/01 00:25:43;;;;;;;1.60;0.60;;;7.70;99.90;;;;;;4994633;28;20246;-75
2023/04/01 00:28:11;;;;;;;3.57;1.00;;;7.60;99.90;;;;;;4995173;28;20206;-74
2023/04/01 00:30:41;;;;;;;2.20;0.70;;;7.50;99.90;;;;;;4994553;28;20213;-75
2023/04/01 00:33:09;;;;;;;3.10;0.77;;;7.50;99.90;;;;;;4993994;28;20210;-76
2023/04/01 00:35:38;;;;;;;2.47;0.93;;;7.40;99.90;;;;;;4994541;28;20706;-78
2023/04/01 00:38:07;;;;;;;3.27;0.70;;;7.30;99.90;;;;;;4994555;28;20230;-75
2023/04/01 00:40:37;;;;;;;1.57;0.70;;;7.30;99.90;;;;;;4994307;28;20656;-79
2023/04/01 00:43:12;;;;;;;1.87;0.73;;;7.30;99.90;;;;;;4993538;28;20251;-78
2023/04/01 00:45:43;;;;;;;2.73;0.97;;;7.20;99.90;;;;;;4994514;28;20214;-77
2023/04/01 00:48:15;;;;;;;1.77;0.70;;;7.20;99.90;;;;;;4994662;28;20550;-75
2023/04/01 00:50:46;;;;;;;1.20;0.60;;;7.10;99.90;;;;;;5001130;28;20225;-74
2023/04/01 00:53:16;;;;;;;2.10;0.80;;;7.10;99.90;;;;;;5012800;28;20214;-75
2023/04/01 00:55:52;;;;;;;1.13;0.60;;;7.10;99.90;;;;;;5013635;28;20306;-77
2023/04/01 00:58:24;;;;;;;1.30;0.63;;;7.10;99.90;;;;;;5014066;28;20251;-76
2023/04/01 01:00:54;;;;;;;2.73;0.70;;;7.10;99.90;;;;;;4998062;28;20210;-75
2023/04/01 01:03:22;;;;;;;4.90;1.03;;;7.10;99.90;;;;;;4994216;28;20229;-78
2023/04/01 01:06:09;;;;;;;2.50;0.83;;;7.10;99.90;;;;;;4993636;28;20668;-76
2023/04/01 01:09:08;;;;;;;1.80;0.93;;;7.10;99.90;;;;;;4993953;28;20291;-76
2023/04/01 01:11:40;;;;;;;2.33;0.83;;;7.10;99.90;;;;;;4994480;28;20210;-76
2023/04/01 01:14:30;;;;;;;4.10;1.10;;;7.20;99.90;;;;;;4994210;28;20575;-79
2023/04/01 01:17:06;;;;;;;4.37;1.20;;;7.20;99.90;;;;;;4993846;28;20695;-75
2023/04/01 01:20:11;;;;;;;3.57;0.83;;;7.20;99.90;;;;;;4993936;28;20221;-76
2023/04/01 01:23:29;;;;;;;3.50;0.70;;;7.20;99.90;;;;;;4991390;28;20289;-76
2023/04/01 01:26:17;;;;;;;3.13;0.80;;;7.20;99.90;;;;;;5013014;28;20213;-75
2023/04/01 01:28:55;;;;;;;1.97;0.80;;;7.10;99.90;;;;;;4991037;28;20206;-77
2023/04/01 01:31:32;;;;;;;3.07;0.80;;;7.20;99.90;;;;;;4978008;28;20285;-77
2023/04/01 01:34:13;;;;;;;2.23;0.90;;;7.20;99.90;;;;;;4993821;28;20200;-74
2023/04/01 01:36:46;;;;;;;2.73;0.80;;;7.30;99.90;;;;;;4993828;28;20210;-77
2023/04/01 01:39:17;;;;;;;2.30;0.60;;;7.30;99.90;;;;;;4992658;28;20210;-73
2023/04/01 01:41:49;;;;;;;1.50;0.87;;;7.20;99.90;;;;;;5010476;28;20221;-76
2023/04/01 01:44:18;;;;;;;2.60;0.87;;;7.20;99.90;;;;;;5013041;28;20640;-75
2023/04/01 01:46:49;;;;;;;2.83;0.93;;;7.30;99.90;;;;;;4995470;28;20230;-75
2023/04/01 01:49:19;;;;;;;3.57;0.93;;;7.20;99.90;;;;;;5000422;28;20282;-78
2023/04/01 01:51:49;;;;;;;1.40;0.60;;;7.20;99.90;;;;;;5012289;28;20680;-75
2023/04/01 01:54:18;;;;;;;2.00;0.67;;;7.20;99.90;;;;;;4993731;28;20214;-75
2023/04/01 01:56:50;;;;;;;3.17;0.87;;;7.20;99.90;;;;;;4993170;28;20218;-77
2023/04/01 01:59:22;;;;;;;3.47;0.87;;;7.20;99.90;;;;;;4993177;28;20589;-78
2023/04/01 02:01:53;;;;;;;1.77;0.80;;;7.20;99.90;;;;;;4993376;28;20206;-77
2023/04/01 02:04:23;;;;;;;2.63;0.90;;;7.20;99.90;;;;;;4993399;28;20242;-76
2023/04/01 02:06:59;;;;;;;2.57;0.80;;;7.20;99.90;;;;;;4993418;28;20214;-79
2023/04/01 02:09:29;;;;;;;4.30;1.00;;;7.20;99.90;;;;;;4992931;28;20217;-78
2023/04/01 02:11:59;;;;;;;3.93;1.10;;;7.20;99.90;;;;;;4992330;28;20213;-79
2023/04/01 02:14:31;;;;;;;2.17;0.70;;;7.20;99.90;;;;;;4992849;28;20300;-77
2023/04/01 02:17:05;;;;;;;2.43;0.70;;;7.20;99.90;;;;;;4993568;28;20559;-79
2023/04/01 02:19:37;;;;;;;1.50;0.70;;;7.10;99.90;;;;;;4993323;28;20208;-75
2023/04/01 02:22:12;;;;;;;3.90;1.03;;;7.10;99.90;;;;;;4992623;28;20198;-76
2023/04/01 02:24:42;;;;;;;2.23;0.70;;;7.20;99.90;;;;;;4993113;28;20220;-77
2023/04/01 02:27:11;;;;;;;1.57;0.57;;;7.10;99.90;;;;;;4993026;28;20218;-72
2023/04/01 02:29:40;;;;;;;2.33;0.70;;;7.10;99.90;;;;;;4992626;28;20221;-77
2023/04/01 02:32:09;;;;;;;2.33;0.80;;;7.10;99.90;;;;;;4993024;28;20217;-77
2023/04/01 02:34:38;;;;;;;2.20;0.67;;;7.10;99.90;;;;;;4993107;28;20267;-78
2023/04/01 02:37:15;;;;;;;1.60;0.60;;;7.10;99.90;;;;;;4993383;28;20304;-77
2023/04/01 02:39:44;;;;;;;2.03;0.80;;;7.10;99.90;;;;;;5005136;28;20209;-76
2023/04/01 02:42:12;;;;;;;2.87;0.77;;;7.10;99.90;;;;;;5011920;28;20236;-78
2023/04/01 02:44:40;;;;;;;1.07;0.50;;;7.10;99.90;;;;;;5012580;28;20300;-78
2023/04/01 02:47:08;;;;;;;1.23;0.53;;;7.10;99.90;;;;;;5008887;28;20217;-78
2023/04/01 02:49:36;;;;;;;1.90;0.87;;;7.10;99.90;;;;;;4992760;28;20229;-78
2023/04/01 02:52:05;;;;;;;1.37;0.60;;;7.10;99.90;;;;;;4992517;28;20218;-76
2023/04/01 02:54:34;;;;;;;1.30;0.50;;;7.10;99.90;;;;;;4993128;28;20313;-76
2023/04/01 02:57:02;;;;;;;2.73;0.70;;;7.10;99.90;;;;;;4993171;28;20232;-78
2023/04/01 02:59:32;;;;;;;1.50;0.60;;;7.10;99.90;;;;;;4993184;28;20222;-78
2023/04/01 03:02:00;;;;;;;2.07;0.80;;;7.10;99.90;;;;;;4992260;28;20241;-76
2023/04/01 03:04:28;;;;;;;2.60;0.67;;;7.10;99.90;;;;;;4993386;28;20646;-78
2023/04/01 03:06:56;;;;;;;1.57;0.70;;;7.10;99.90;;;;;;5007719;28;20588;-79
2023/04/01 03:09:25;;;;;;;1.60;0.60;;;7.10;99.90;;;;;;5013275;28;20213;-77
2023/04/01 03:11:54;;;;;;;1.50;0.53;;;7.20;99.90;;;;;;5012431;28;20581;-77
2023/04/01 03:14:22;;;;;;;1.57;0.70;;;7.20;99.90;;;;;;4999940;28;20300;-78
2023/04/01 03:16:50;;;;;;;1.17;0.40;;;7.10;99.90;;;;;;4996304;28;20214;-76
2023/04/01 03:19:18;;;;;;;1.03;0.47;;;7.10;99.90;;;;;;4996237;28;20230;-77
2023/04/01 03:21:46;;;;;;;1.80;0.70;;;7.10;99.90;;;;;;4995885;28;20217;-76
2023/04/01 03:24:14;;;;;;;0.63;0.50;;;7.10;99.90;;;;;;4996133;28;20604;-76
2023/04/01 03:26:42;;;;;;;2.30;0.60;;;7.10;99.90;;;;;;4995913;28;20214;-76
2023/04/01 03:29:12;;;;;;;2.13;0.60;;;7.10;99.90;;;;;;4995791;28;20206;-77
2023/04/01 03:31:40;;;;;;;1.50;0.50;;;7.10;99.90;;;;;;4995522;28;20623;-78
2023/04/01 03:34:09;;;;;;;1.30;0.70;;;7.10;99.90;;;;;;4995871;28;20259;-77
2023/04/01 03:36:37;;;;;;;1.63;0.50;;;7.20;99.90;;;;;;4996248;28;20206;-78
2023/04/01 03:39:06;;;;;;;1.40;0.47;;;7.10;99.90;;;;;;5014180;28;20264;-79
2023/04/01 03:41:36;;;;;;;1.30;0.60;;;7.20;99.90;;;;;;4997584;28;20210;-76
2023/04/01 03:44:04;;;;;;;1.50;0.40;;;7.20;99.90;;;;;;4995942;28;20414;-77
2023/04/01 03:46:34;;;;;;;0.93;0.50;;;7.20;99.90;;;;;;4995827;28;20299;-78
2023/04/01 03:49:02;;;;;;;1.50;0.47;;;7.20;99.90;;;;;;4995575;28;20668;-76
2023/04/01 03:51:30;;;;;;;0.70;0.30;;;7.10;99.90;;;;;;4995586;28;20230;-78
2023/04/01 03:53:58;;;;;;;0.60;0.40;;;7.10;99.90;;;;;;4995262;28;20217;-78
2023/04/01 03:56:26;;;;;;;2.17;0.70;;;7.10;99.90;;;;;;4995718;28;20214;-75
2023/04/01 03:58:54;;;;;;;1.53;0.40;;;7.10;99.90;;;;;;4995236;28;20230;-77
2023/04/01 04:01:23;;;;;;;1.47;0.50;;;7.00;99.90;;;;;;4995581;28;20264;-77
2023/04/01 04:03:53;;;;;;;1.80;0.50;;;6.90;99.90;;;;;;4995055;28;20305;-77
2023/04/01 04:06:21;;;;;;;1.00;0.40;;;6.90;99.90;;;;;;4994858;28;20625;-76
2023/04/01 04:08:50;;;;;;;0.73;0.30;;;6.90;99.90;;;;;;4995031;28;20332;-78
2023/04/01 04:11:19;;;;;;;1.43;0.40;;;6.90;99.90;;;;;;4995410;28;20210;-77
2023/04/01 04:13:48;;;;;;;1.13;0.50;;;7.00;99.90;;;;;;5001850;28;20226;-77
2023/04/01 04:16:17;;;;;;;0.67;0.27;;;6.90;99.90;;;;;;5000861;28;20263;-77
2023/04/01 04:18:45;;;;;;;2.10;0.37;;;6.90;99.90;;;;;;5014827;28;20233;-75
2023/04/01 04:21:16;;;;;;;1.17;0.50;;;6.90;99.90;;;;;;5014366;28;20206;-75
2023/04/01 04:23:44;;;;;;;0.50;0.40;;;6.90;99.90;;;;;;5009734;28;20225;-77
2023/04/01 04:26:14;;;;;;;0.43;0.40;;;6.90;99.90;;;;;;4993947;28;20206;-76
2023/04/01 04:28:42;;;;;;;1.23;0.33;;;6.90;99.90;;;;;;4994098;28;20739;-75
2023/04/01 04:31:11;;;;;;;0.73;0.37;;;6.90;99.90;;;;;;4987356;28;20213;-76
2023/04/01 04:33:39;;;;;;;1.90;0.50;;;6.90;99.90;;;;;;4994347;28;20615;-77
2023/04/01 04:36:08;;;;;;;2.10;0.57;;;7.00;99.90;;;;;;5000179;28;20233;-76
2023/04/01 04:38:37;;;;;;;1.53;0.40;;;7.00;99.90;;;;;;5013807;28;20213;-75
2023/04/01 04:41:10;;;;;;;0.97;0.50;;;6.90;99.90;;;;;;5014210;28;20224;-77
2023/04/01 04:43:38;;;;;;;0.67;0.40;;;6.90;99.90;;;;;;5013975;28;20210;-80
2023/04/01 04:46:07;;;;;;;0.63;0.50;;;6.90;99.90;;;;;;5013906;28;20209;-76
2023/04/01 04:48:35;;;;;;;2.57;0.40;;;6.90;99.90;;;;;;5013956;28;20581;-77
2023/04/01 04:51:04;;;;;;;2.60;0.53;;;6.90;99.90;;;;;;5012619;28;20723;-79
2023/04/01 04:53:32;;;;;;;1.30;0.50;;;6.90;99.90;;;;;;5013516;28;20214;-78
2023/04/01 04:56:01;;;;;;;0.50;0.40;;;6.90;99.90;;;;;;5013529;28;20671;-78
2023/04/01 04:58:29;;;;;;;0.47;0.40;;;6.80;99.90;;;;;;5012282;28;20382;-78
2023/04/01 05:00:57;;;;;;;0.57;0.50;;;6.80;99.90;;;;;;5012976;28;20240;-79
2023/04/01 05:03:25;;;;;;;1.40;0.50;;;6.80;99.90;;;;;;5013539;28;20213;-77
2023/04/01 05:05:55;;;;;;;0.90;0.60;;;6.80;99.90;;;;;;5014012;28;20287;-75
2023/04/01 05:08:23;;;;;;;1.20;0.50;;;6.80;99.90;;;;;;4994111;28;20214;-79
2023/04/01 05:10:52;;;;;;;1.60;0.60;;;6.90;99.90;;;;;;4994368;28;20224;-79
2023/04/01 05:13:21;;;;;;;0.80;0.50;;;6.90;99.90;;;;;;4995120;28;20214;-77
2023/04/01 05:15:49;;;;;;;1.07;0.60;;;6.90;99.90;;;;;;4994112;28;20218;-77
2023/04/01 05:18:17;;;;;;;1.17;0.47;;;6.90;99.90;;;;;;4994101;28;20206;-77
2023/04/01 05:20:50;;;;;;;0.60;0.33;;;7.00;99.90;;;;;;4994183;28;20241;-76
2023/04/01 05:23:20;;;;;;;2.10;0.70;;;7.00;99.90;;;;;;4993850;28;20305;-73
2023/04/01 05:25:49;;;;;;;1.10;0.60;;;7.00;99.90;;;;;;4994093;28;20549;-77
2023/04/01 05:28:17;;;;;;;1.03;0.53;;;7.00;99.90;;;;;;4994054;28;20213;-79
2023/04/01 05:30:47;;;;;;;1.63;0.63;;;7.00;99.90;;;;;;4993890;28;20301;-78
2023/04/01 05:33:15;;;;;;;1.13;0.50;;;7.00;99.90;;;;;;4993865;28;20253;-78
2023/04/01 05:35:43;;;;;;;2.40;0.60;;;7.20;99.90;;;;;;5012918;28;20210;-76
2023/04/01 05:38:11;;;;;;;1.93;0.53;;;7.20;99.90;;;;;;5013008;28;20213;-77
2023/04/01 05:40:39;;;;;;;2.20;0.80;;;7.30;99.90;;;;;;5013255;28;20316;-77
2023/04/01 05:43:08;;;;;;;1.40;0.70;;;7.30;99.90;;;;;;4996024;28;20214;-78
2023/04/01 05:45:36;;;;;;;0.97;0.70;;;7.40;99.90;;;;;;4993646;28;20221;-78
2023/04/01 05:48:06;;;;;;;1.87;1.10;;;7.50;99.90;;;;;;4993627;28;20218;-77
2023/04/01 05:50:34;;;;;;;1.13;0.77;;;7.50;99.90;;;;;;4993619;28;20226;-77
2023/04/01 05:53:02;;;;;;;2.27;0.77;;;7.60;99.90;;;;;;4992924;28;20644;-77
2023/04/01 05:55:30;;;;;;;2.20;0.87;;;7.60;99.90;;;;;;4993580;28;20216;-77
2023/04/01 05:57:59;;;;;;;1.00;0.60;;;7.80;99.90;;;;;;4993204;28;20647;-77
2023/04/01 06:00:27;;;;;;;1.13;0.60;;;7.90;99.90;;;;;;4993498;28;20229;-76
2023/04/01 06:02:55;;;;;;;2.90;0.77;;;7.90;99.90;;;;;;4993611;28;20604;-77
2023/04/01 06:05:28;;;;;;;1.77;0.60;;;8.00;99.90;;;;;;4993175;28;20209;-77
2023/04/01 06:08:00;;;;;;;1.47;0.60;;;8.10;99.90;;;;;;4993712;28;20210;-78
2023/04/01 06:10:49;;;;;;;1.83;0.70;;;8.30;99.90;;;;;;4993445;28;20257;-77
2023/04/01 06:13:27;;;;;;;1.27;0.70;;;8.40;99.90;;;;;;4993565;28;20289;-77
2023/04/01 06:16:05;;;;;;;1.80;0.80;;;8.40;99.90;;;;;;4993128;28;20828;-77
2023/04/01 06:18:49;;;;;;;3.60;0.80;;;8.70;99.90;;;;;;4993434;28;20284;-78
2023/04/01 06:21:47;;;;;;;0.77;0.60;;;9.10;99.90;;;;;;4993232;28;20229;-77
2023/04/01 06:24:36;;;;;;;0.60;0.40;;;9.50;99.90;;;;;;4993371;28;20298;-77
2023/04/01 06:27:16;;;;;;;1.90;0.70;;;9.80;99.90;;;;;;4993057;28;20202;-75
2023/04/01 06:29:55;;;;;;;2.03;0.70;;;9.80;99.90;;;;;;5002813;28;20198;-78
2023/04/01 06:32:38;;;;;;;1.90;0.73;;;9.50;99.90;;;;;;4993175;28;20667;-78
2023/04/01 06:35:23;;;;;;;2.20;0.70;;;9.50;99.90;;;;;;4993324;28;20582;-77
2023/04/01 06:38:37;;;;;;;1.40;0.60;;;9.50;99.90;;;;;;4993691;28;20561;-77
2023/04/01 06:41:26;;;;;;;2.57;0.70;;;9.30;99.90;;;;;;4983702;28;20320;-78
2023/04/01 06:44:08;;;;;;;4.17;0.87;;;9.50;99.90;;;;;;4993032;28;20297;-78
2023/04/01 06:46:45;;;;;;;4.13;0.93;;;9.80;99.90;;;;;;4992458;28;20700;-78
2023/04/01 06:49:29;;;;;;;1.03;0.70;;;9.70;99.90;;;;;;4993343;28;20281;-77
2023/04/01 06:52:06;;;;;;;2.03;0.70;;;9.80;99.90;;;;;;4996421;28;20285;-77
2023/04/01 06:54:39;;;;;;;2.67;1.00;;;10.10;99.90;;;;;;4997281;28;20217;-76
2023/04/01 06:57:24;;;;;;;3.00;1.00;;;10.50;99.90;;;;;;4996691;28;20195;-79
2023/04/01 06:59:58;;;;;;;2.50;0.53;;;11.10;99.90;;;;;;4996688;28;20706;-76
2023/04/01 07:02:33;;;;;;;3.13;0.80;;;11.20;99.90;;;;;;4996296;28;20218;-76
2023/04/01 07:05:02;;;;;;;3.73;1.20;;;10.80;99.90;;;;;;4996793;28;20206;-77
2023/04/01 07:07:36;;;;;;;2.23;0.80;;;10.70;99.90;;;;;;4996148;28;20229;-78
2023/04/01 07:10:13;;;;;;;2.90;0.50;;;10.60;99.90;;;;;;5001118;28;20209;-76
2023/04/01 07:12:47;;;;;;;3.53;0.80;;;10.60;99.90;;;;;;5016508;28;20220;-76
2023/04/01 07:15:21;;;;;;;3.03;0.80;;;10.40;99.90;;;;;;5015904;28;20223;-76
2023/04/01 07:17:54;;;;;;;4.70;1.07;;;10.50;99.90;;;;;;5016226;28;20206;-75
2023/04/01 07:20:26;;;;;;;3.17;0.87;;;10.50;99.90;;;;;;4996924;28;20258;-76
2023/04/01 07:22:59;;;;;;;1.33;0.60;;;10.20;99.90;;;;;;4997739;28;20234;-77
2023/04/01 07:25:34;;;;;;;2.07;0.70;;;10.30;99.90;;;;;;5000793;28;20214;-78
2023/04/01 07:28:06;;;;;;;2.53;1.00;;;10.10;99.90;;;;;;4997943;28;20217;-76
2023/04/01 07:30:47;;;;;;;2.50;1.70;;;10.00;99.90;;;;;;4997303;28;20191;-77
2023/04/01 07:33:20;;;;;;;1.60;1.10;;;10.30;99.90;;;;;;5015559;28;20353;-77
2023/04/01 07:35:58;;;;;;;1.97;0.90;;;10.40;99.90;;;;;;5017468;28;20211;-76
2023/04/01 07:38:36;;;;;;;2.30;0.90;;;11.00;99.90;;;;;;4998138;28;20206;-77
2023/04/01 07:41:13;;;;;;;1.03;0.60;;;12.10;99.90;;;;;;4999665;28;20225;-76
2023/04/01 07:43:57;;;;;;;1.53;0.70;;;12.10;99.90;;;;;;4998446;28;20241;-76
2023/04/01 07:46:47;;;;;;;2.23;1.10;;;12.70;99.90;;;;;;5002684;28;20300;-77
2023/04/01 07:49:20;;;;;;;1.30;0.80;;;13.00;99.90;;;;;;5016370;28;20193;-75
2023/04/01 07:51:54;;;;;;;1.77;1.10;;;12.70;99.90;;;;;;5017743;28;20233;-75
2023/04/01 07:54:32;;;;;;;1.47;1.00;;;12.60;99.90;;;;;;5017464;28;20209;-76
2023/04/01 07:57:08;;;;;;;2.30;0.60;;;12.60;99.90;;;;;;5016857;28;20574;-77
2023/04/01 07:59:47;;;;;;;0.63;0.60;;;12.90;99.90;;;;;;5017900;28;20198;-77
2023/04/01 08:02:28;;;;;;;1.30;0.50;;;13.50;99.90;;;;;;5016370;28;20679;-76
2023/04/01 08:05:05;;;;;;;2.37;0.70;;;14.60;99.90;;;;;;4996711;28;20194;-75
2023/04/01 08:07:41;;;;;;;0.70;0.60;;;15.20;99.90;;;;;;4996804;28;20208;-76
2023/04/01 08:10:17;;;;;;;1.77;0.57;;;14.70;99.90;;;;;;4995982;28;20213;-73
2023/04/01 08:13:00;;;;;;;4.13;0.80;;;14.10;99.90;;;;;;5002083;28;20229;-77
2023/04/01 08:15:30;;;;;;;1.80;0.50;;;13.70;99.90;;;;;;5016324;28;20590;-74
2023/04/01 08:18:07;;;;;;;0.83;0.40;;;13.10;99.90;;;;;;5015749;28;20213;-76
2023/04/01 08:20:42;;;;;;;0.47;0.40;;;12.80;99.90;;;;;;5019591;28;20198;-74
2023/04/01 08:23:16;;;;;;;1.03;0.50;;;12.80;99.90;;;;;;4996387;28;20198;-76
2023/04/01 08:25:51;;;;;;;0.90;0.40;;;11.90;99.90;;;;;;4995558;28;20257;-77
2023/04/01 08:28:28;;;;;;;1.63;0.70;;;11.90;99.90;;;;;;4995309;28;20260;-77
2023/04/01 08:31:01;;;;;;;1.60;0.70;;;11.50;99.90;;;;;;5004018;28;20625;-76
2023/04/01 08:33:31;;;;;;;1.00;0.70;;;11.40;99.90;;;;;;5015144;28;20198;-75
2023/04/01 08:36:06;;;;;;;1.00;0.50;;;11.70;99.90;;;;;;5015249;28;20213;-76
2023/04/01 08:38:41;;;;;;;2.73;0.60;;;12.40;99.90;;;;;;5002227;28;20256;-76
2023/04/01 08:41:31;;;;;;;1.60;0.63;;;12.90;99.90;;;;;;4994912;28;20456;-75
2023/04/01 08:44:34;;;;;;;1.30;0.60;;;13.00;99.90;;;;;;4994798;28;20205;-74
2023/04/01 08:47:18;;;;;;;0.70;0.40;;;12.20;99.90;;;;;;4997643;28;20205;-75
2023/04/01 08:50:10;;;;;;;1.57;0.50;;;12.30;99.90;;;;;;5014469;28;20245;-76
2023/04/01 08:52:44;;;;;;;1.47;0.73;;;12.90;99.90;;;;;;5014130;28;20206;-75
2023/04/01 08:55:31;;;;;;;1.60;0.50;;;13.10;99.90;;;;;;5013971;28;20205;-75
2023/04/01 08:58:35;;;;;;;0.87;0.37;;;12.80;99.90;;;;;;4999454;28;20207;-76
2023/04/01 09:01:15;;;;;;;0.30;0.30;;;12.80;99.90;;;;;;4994566;28;20612;-76
2023/04/01 09:04:05;;;;;;;1.53;0.50;;;12.90;99.90;;;;;;4994265;28;20194;-76
2023/04/01 09:06:41;;;;;;;0.43;0.33;;;12.80;99.90;;;;;;4994499;28;20210;-76
2023/04/01 09:09:39;;;;;;;0.97;0.50;;;12.50;99.90;;;;;;4994645;28;20205;-75
2023/04/01 09:12:34;;;;;;;1.73;0.50;;;12.40;99.90;;;;;;4993593;28;20202;-77
2023/04/01 09:15:41;;;;;;;1.40;0.40;;;12.50;99.90;;;;;;4984487;28;20224;-76
2023/04/01 09:18:47;;;;;;;0.83;0.40;;;12.30;99.90;;;;;;4962760;28;20269;-75
2023/04/01 09:21:31;;;;;;;2.27;0.40;;;12.30;99.90;;;;;;4994270;28;20620;-74
2023/04/01 09:24:47;;;;;;;0.73;0.40;;;12.90;99.90;;;;;;4993694;28;20224;-77
2023/04/01 09:27:30;;;;;;;0.30;0.30;;;12.70;99.90;;;;;;4933674;29;20227;-76
2023/04/01 09:30:32;;;;;;;0.73;0.50;;;12.60;99.90;;;;;;5006435;28;20217;-74
2023/04/01 09:33:32;;;;;;;0.47;0.30;;;12.50;99.90;;;;;;4996797;28;20205;-74
2023/04/01 09:36:13;;;;;;;2.30;0.40;;;12.70;99.90;;;;;;4994019;28;20221;-76
2023/04/01 09:38:56;;;;;;;0.80;0.50;;;12.30;99.90;;;;;;4994219;28;20198;-76
2023/04/01 09:41:31;;;;;;;0.47;0.47;;;12.20;99.90;;;;;;4993771;28;20215;-75
2023/04/01 09:44:03;;;;;;;1.43;0.50;;;12.30;99.90;;;;;;4993843;28;20215;-75
2023/04/01 09:46:53;;;;;;;0.97;0.43;;;12.20;99.90;;;;;;4993802;28;20633;-75
2023/04/01 09:49:53;;;;;;;0.87;0.50;;;11.90;99.90;;;;;;4994329;28;20201;-75
2023/04/01 09:52:28;;;;;;;0.33;0.33;;;11.80;99.90;;;;;;4993405;28;20233;-75
2023/04/01 09:55:14;;;;;;;0.30;0.30;;;11.80;99.90;;;;;;5005922;28;20281;-77
2023/04/01 09:58:26;;;;;;;1.23;0.40;;;11.70;99.90;;;;;;4993982;28;20283;-77
2023/04/01 10:01:18;;;;;;;0.70;0.63;;;11.60;99.90;;;;;;4994033;28;20194;-76
2023/04/01 10:04:20;;;;;;;1.27;0.60;;;11.60;99.90;;;;;;4981559;28;20214;-77
2023/04/01 10:07:25;;;;;;;1.23;0.80;;;11.60;99.90;;;;;;4993822;28;20201;-77
2023/04/01 10:10:34;;;;;;;0.83;0.60;;;11.80;99.90;;;;;;4993582;28;20206;-77
2023/04/01 10:13:42;;;;;;;1.40;0.70;;;12.10;99.90;;;;;;4992971;28;20575;-76
2023/04/01 10:16:32;;;;;;;1.13;0.60;;;12.20;99.90;;;;;;4978564;28;20232;-77
2023/04/01 10:19:28;;;;;;;2.13;0.37;;;12.30;99.90;;;;;;4993521;28;20293;-77
2023/04/01 10:22:26;;;;;;;0.30;0.30;;;12.40;99.90;;;;;;4992799;28;20232;-77
2023/04/01 10:25:30;;;;;;;0.20;0.20;;;12.40;99.90;;;;;;4993086;28;20202;-78
2023/04/01 10:28:41;;;;;;;2.40;0.60;;;12.10;99.90;;;;;;5000682;28;20209;-76
2023/04/01 10:31:42;;;;;;;0.77;0.47;;;12.00;99.90;;;;;;5003487;28;20241;-76
2023/04/01 10:35:05;;;;;;;0.20;0.20;;;12.00;99.90;;;;;;4988323;28;20220;-76
2023/04/01 10:38:04;;;;;;;1.03;0.30;;;11.90;99.90;;;;;;4932738;29;20279;-76
2023/04/01 10:40:57;;;;;;;2.03;0.63;;;12.00;99.90;;;;;;4929272;29;20295;-76
2023/04/01 10:44:16;;;;;;;0.40;0.30;;;12.10;99.90;;;;;;4986066;28;20320;-77
2023/04/01 10:47:19;;;;;;;0.50;0.40;;;12.10;99.90;;;;;;4992654;28;20300;-76
2023/04/01 10:50:14;;;;;;;0.57;0.40;;;12.00;99.90;;;;;;4992563;28;20332;-76
2023/04/01 10:53:07;;;;;;;1.93;0.90;;;12.00;99.90;;;;;;5012073;28;20193;-75
2023/04/01 10:56:03;;;;;;;0.27;0.20;;;12.10;99.90;;;;;;5012368;28;20202;-77
2023/04/01 10:59:05;;;;;;;0.47;0.30;;;12.00;99.90;;;;;;5005957;28;20214;-76
2023/04/01 11:02:11;;;;;;;1.87;0.70;;;12.00;99.90;;;;;;4992599;28;20285;-77
2023/04/01 11:05:20;;;;;;;0.60;0.40;;;11.90;99.90;;;;;;4992979;28;20256;-77
2023/04/01 11:08:27;;;;;;;0.30;0.30;;;11.70;99.90;;;;;;4992592;28;20317;-77
2023/04/01 11:11:32;;;;;;;0.30;0.30;;;11.70;99.90;;;;;;4992990;28;20206;-79
2023/04/01 11:14:39;;;;;;;0.27;0.27;;;11.60;99.90;;;;;;4977285;28;20221;-79
2023/04/01 11:17:35;;;;;;;0.23;0.20;;;11.60;99.90;;;;;;5006146;28;20211;-77
2023/04/01 11:20:23;;;;;;;1.20;0.40;;;11.30;99.90;;;;;;5012618;28;20217;-75
2023/04/01 11:23:43;;;;;;;0.30;0.30;;;11.00;99.90;;;;;;5012943;28;20312;-77
2023/04/01 11:26:42;;;;;;;0.87;0.37;;;10.90;99.90;;;;;;4934259;28;20208;-76
2023/04/01 11:29:31;;;;;;;0.33;0.30;;;10.70;99.90;;;;;;4993159;28;20275;-75
2023/04/01 11:32:08;;;;;;;0.50;0.50;;;10.60;99.90;;;;;;4992195;28;20290;-76
2023/04/01 11:35:02;;;;;;;0.30;0.27;;;10.60;99.90;;;;;;4993174;28;20284;-76
2023/04/01 11:37:42;;;;;;;0.20;0.20;;;10.50;99.90;;;;;;4995336;28;20202;-79
2023/04/01 11:40:24;;;;;;;0.73;0.30;;;10.40;99.90;;;;;;4995944;28;20198;-76
2023/04/01 11:42:58;;;;;;;0.30;0.30;;;10.50;99.90;;;;;;4995569;28;20226;-74
2023/04/01 11:45:36;;;;;;;0.50;0.47;;;10.50;99.90;;;;;;4995955;28;20309;-77
2023/04/01 11:48:28;;;;;;;0.37;0.30;;;10.70;99.90;;;;;;4995894;28;20716;-74
2023/04/01 11:51:44;;;;;;;0.10;0.10;;;10.60;99.90;;;;;;4996038;28;20234;-79
2023/04/01 11:54:26;;;;;;;0.40;0.20;;;10.70;99.90;;;;;;4935502;29;20280;-74
2023/04/01 11:57:07;;;;;;;0.40;0.40;;;10.50;99.90;;;;;;4993211;28;20212;-74
2023/04/01 12:00:00;;;;;;;0.30;0.30;;;10.40;99.90;;;;;;4996261;28;20199;-75
2023/04/01 12:02:41;;;;;;;0.20;0.20;;;10.00;99.90;;;;;;4990511;28;20233;-78
2023/04/01 12:05:25;;;;;;;1.90;0.37;;;9.90;99.90;;;;;;4978916;28;20217;-78
2023/04/01 12:08:13;;;;;;;0.90;0.80;;;10.00;99.90;;;;;;5002078;28;20213;-75
2023/04/01 12:10:49;;;;;;;0.40;0.40;;;9.90;99.90;;;;;;5015577;28;20224;-75
2023/04/01 12:13:31;;;;;;;0.70;0.40;;;9.80;99.90;;;;;;4994424;28;20187;-77
2023/04/01 12:16:24;;;;;;;1.60;1.10;;;9.70;99.90;;;;;;5011859;28;20210;-75
2023/04/01 12:18:59;;;;;;;0.60;0.40;;;9.70;99.90;;;;;;4998525;28;20212;-76
2023/04/01 12:21:33;;;;;;;0.20;0.20;;;9.50;99.90;;;;;;5007278;28;20205;-76
2023/04/01 12:24:30;;;;;;;0.37;0.37;;;9.20;99.90;;;;;;5007784;28;20225;-74
2023/04/01 12:27:12;;;;;;;0.43;0.37;;;9.00;99.90;;;;;;5007280;28;20641;-74
2023/04/01 12:30:16;;;;;;;0.20;0.20;;;8.90;99.90;;;;;;5005169;28;20237;-75
2023/04/01 12:32:52;;;;;;;1.33;1.20;;;8.90;99.90;;;;;;5007133;28;20197;-76
2023/04/01 12:35:26;;;;;;;0.90;0.60;;;8.90;99.90;;;;;;5009718;28;20220;-73
2023/04/01 12:38:05;;;;;;;0.40;0.40;;;9.00;99.90;;;;;;5003091;28;20194;-77
2023/04/01 12:40:47;;;;;;;0.37;0.30;;;9.00;99.90;;;;;;4999599;28;20210;-73
2023/04/01 12:43:36;;;;;;;0.20;0.20;;;9.10;99.90;;;;;;4998027;28;20218;-76
2023/04/01 12:46:14;;;;;;;0.20;0.20;;;9.10;99.90;;;;;;4996737;28;20194;-74
2023/04/01 12:49:06;;;;;;;0.70;0.30;;;9.10;99.90;;;;;;4996785;28;20224;-74
2023/04/01 12:51:48;;;;;;;1.00;0.30;;;9.10;99.90;;;;;;4995393;28;20229;-74
2023/04/01 12:55:08;;;;;;;0.40;0.30;;;9.20;99.90;;;;;;4996742;28;20197;-76
2023/04/01 12:58:05;;;;;;;0.50;0.50;;;9.30;99.90;;;;;;4966644;28;20221;-76
2023/04/01 13:01:04;;;;;;;1.17;0.70;;;9.20;99.90;;;;;;4992886;28;20516;-79
2023/04/01 13:03:55;;;;;;;0.33;0.33;;;9.30;99.90;;;;;;4995529;28;20237;-75
2023/04/01 13:06:37;;;;;;;1.33;0.60;;;9.30;99.90;;;;;;4995997;28;20206;-74
2023/04/01 13:09:21;;;;;;;0.37;0.30;;;9.30;99.90;;;;;;4996463;28;20210;-76
2023/04/01 13:12:11;;;;;;;0.87;0.40;;;9.10;99.90;;;;;;4996513;28;20637;-74
2023/04/01 13:15:00;;;;;;;1.13;0.60;;;9.00;99.90;;;;;;4997001;28;20233;-76
2023/04/01 13:17:37;;;;;;;1.43;0.60;;;8.90;99.90;;;;;;4995563;28;20202;-78
2023/04/01 13:20:17;;;;;;;0.37;0.30;;;8.80;99.90;;;;;;4995743;28;20198;-76
2023/04/01 13:22:58;;;;;;;0.40;0.40;;;8.70;99.90;;;;;;4994887;28;20209;-76
2023/04/01 13:25:36;;;;;;;0.50;0.50;;;8.60;99.90;;;;;;4995537;28;20797;-78
2023/04/01 13:28:13;;;;;;;2.17;0.57;;;8.60;99.90;;;;;;4994812;28;20301;-78
2023/04/01 13:30:49;;;;;;;1.30;0.43;;;8.50;99.90;;;;;;4977337;28;20665;-78
2023/04/01 13:33:29;;;;;;;0.77;0.50;;;8.30;99.90;;;;;;4994268;28;20190;-79
2023/04/01 13:36:08;;;;;;;0.40;0.40;;;8.30;99.90;;;;;;4994983;28;20210;-77
2023/04/01 13:38:58;;;;;;;0.70;0.50;;;8.20;99.90;;;;;;4994424;28;20190;-76
2023/04/01 13:41:39;;;;;;;1.67;0.40;;;8.30;99.90;;;;;;4994454;28;20289;-77
2023/04/01 13:44:12;;;;;;;1.30;0.50;;;8.20;99.90;;;;;;4993422;28;20228;-75
2023/04/01 13:47:11;;;;;;;0.83;0.60;;;8.30;99.90;;;;;;4993994;28;20214;-78
2023/04/01 13:50:08;;;;;;;0.43;0.43;;;8.30;99.90;;;;;;4964067;28;20241;-77
2023/04/01 13:53:06;;;;;;;0.57;0.57;;;8.40;99.90;;;;;;4994060;28;20210;-77
2023/04/01 13:55:48;;;;;;;0.70;0.57;;;8.40;99.90;;;;;;4992163;28;20214;-76